sensor_id;sensor_type;location;lat;lon;timestamp;P1;durP1;ratioP1;P2;durP2;ratioP2
67508;SDS011;54354;44.724;11.284;2022-09-20T00:00:39;6.35;;;3.08;;
67508;SDS011;54354;44.724;11.284;2022-09-20T00:03:05;4.05;;;3.05;;
67508;SDS011;54354;44.724;11.284;2022-09-20T00:05:34;3.85;;;2.83;;
67508;SDS011;54354;44.724;11.284;2022-09-20T00:10:27;3.72;;;2.40;;
67508;SDS011;54354;44.724;11.284;2022-09-20T00:12:53;4.45;;;2.78;;
67508;SDS011;54354;44.724;11.284;2022-09-20T00:15:19;3.25;;;2.70;;
67508;SDS011;54354;44.724;11.284;2022-09-20T00:17:44;4.63;;;2.90;;
67508;SDS011;54354;44.724;11.284;2022-09-20T00:20:10;5.00;;;3.30;;
67508;SDS011;54354;44.724;11.284;2022-09-20T00:22:35;6.35;;;2.80;;
67508;SDS011;54354;44.724;11.284;2022-09-20T00:25:00;5.10;;;2.67;;
67508;SDS011;54354;44.724;11.284;2022-09-20T00:27:26;5.53;;;2.95;;
67508;SDS011;54354;44.724;11.284;2022-09-20T00:29:51;3.80;;;2.78;;
67508;SDS011;54354;44.724;11.284;2022-09-20T00:32:18;4.40;;;3.10;;
67508;SDS011;54354;44.724;11.284;2022-09-20T00:34:43;4.32;;;3.33;;
67508;SDS011;54354;44.724;11.284;2022-09-20T00:37:27;4.47;;;2.90;;
67508;SDS011;54354;44.724;11.284;2022-09-20T00:39:52;3.53;;;2.90;;
67508;SDS011;54354;44.724;11.284;2022-09-20T00:42:18;4.63;;;3.17;;
67508;SDS011;54354;44.724;11.284;2022-09-20T00:47:13;4.97;;;3.08;;
67508;SDS011;54354;44.724;11.284;2022-09-20T00:52:42;5.30;;;2.70;;
67508;SDS011;54354;44.724;11.284;2022-09-20T00:55:12;5.47;;;2.78;;
67508;SDS011;54354;44.724;11.284;2022-09-20T00:57:39;8.25;;;2.88;;
67508;SDS011;54354;44.724;11.284;2022-09-20T01:00:07;2.58;;;2.38;;
67508;SDS011;54354;44.724;11.284;2022-09-20T01:02:35;3.20;;;2.38;;
67508;SDS011;54354;44.724;11.284;2022-09-20T01:07:31;4.80;;;2.15;;
67508;SDS011;54354;44.724;11.284;2022-09-20T01:09:58;3.38;;;2.47;;
67508;SDS011;54354;44.724;11.284;2022-09-20T01:12:25;5.78;;;2.38;;
67508;SDS011;54354;44.724;11.284;2022-09-20T01:14:55;4.53;;;2.35;;
67508;SDS011;54354;44.724;11.284;2022-09-20T01:17:23;2.45;;;2.20;;
67508;SDS011;54354;44.724;11.284;2022-09-20T01:28:01;6.35;;;2.70;;
67508;SDS011;54354;44.724;11.284;2022-09-20T01:30:30;3.63;;;2.58;;
67508;SDS011;54354;44.724;11.284;2022-09-20T01:35:31;6.65;;;2.30;;
67508;SDS011;54354;44.724;11.284;2022-09-20T01:40:46;3.90;;;2.45;;
67508;SDS011;54354;44.724;11.284;2022-09-20T01:46:01;5.30;;;2.50;;
67508;SDS011;54354;44.724;11.284;2022-09-20T01:48:36;4.07;;;2.80;;
67508;SDS011;54354;44.724;11.284;2022-09-20T01:54:02;6.38;;;2.58;;
67508;SDS011;54354;44.724;11.284;2022-09-20T02:13:03;5.28;;;2.28;;
67508;SDS011;54354;44.724;11.284;2022-09-20T02:18:20;6.95;;;1.92;;
67508;SDS011;54354;44.724;11.284;2022-09-20T02:35:32;5.95;;;1.10;;
67508;SDS011;54354;44.724;11.284;2022-09-20T02:38:19;4.82;;;1.05;;
67508;SDS011;54354;44.724;11.284;2022-09-20T02:43:32;3.28;;;1.00;;
67508;SDS011;54354;44.724;11.284;2022-09-20T02:48:44;5.30;;;1.00;;
67508;SDS011;54354;44.724;11.284;2022-09-20T02:51:24;6.32;;;1.10;;
67508;SDS011;54354;44.724;11.284;2022-09-20T02:56:54;3.47;;;0.95;;
67508;SDS011;54354;44.724;11.284;2022-09-20T02:59:28;5.30;;;1.00;;
67508;SDS011;54354;44.724;11.284;2022-09-20T03:02:22;6.20;;;1.05;;
67508;SDS011;54354;44.724;11.284;2022-09-20T03:04:54;7.22;;;1.00;;
67508;SDS011;54354;44.724;11.284;2022-09-20T03:10:23;3.47;;;0.93;;
67508;SDS011;54354;44.724;11.284;2022-09-20T03:32:27;9.07;;;1.73;;
67508;SDS011;54354;44.724;11.284;2022-09-20T03:41:01;4.70;;;2.00;;
67508;SDS011;54354;44.724;11.284;2022-09-20T03:43:50;7.85;;;2.00;;
67508;SDS011;54354;44.724;11.284;2022-09-20T03:46:24;8.35;;;2.00;;
67508;SDS011;54354;44.724;11.284;2022-09-20T03:49:00;8.38;;;2.22;;
67508;SDS011;54354;44.724;11.284;2022-09-20T03:59:42;6.82;;;2.75;;
67508;SDS011;54354;44.724;11.284;2022-09-20T04:05:17;9.82;;;2.88;;
67508;SDS011;54354;44.724;11.284;2022-09-20T04:16:03;9.48;;;2.40;;
67508;SDS011;54354;44.724;11.284;2022-09-20T04:18:54;8.48;;;2.67;;
67508;SDS011;54354;44.724;11.284;2022-09-20T04:21:39;7.95;;;2.85;;
67508;SDS011;54354;44.724;11.284;2022-09-20T04:26:55;9.05;;;1.80;;
67508;SDS011;54354;44.724;11.284;2022-09-20T04:32:23;12.93;;;1.80;;
67508;SDS011;54354;44.724;11.284;2022-09-20T04:35:01;7.57;;;1.63;;
67508;SDS011;54354;44.724;11.284;2022-09-20T04:37:56;11.05;;;1.30;;
67508;SDS011;54354;44.724;11.284;2022-09-20T04:57:16;7.75;;;2.33;;
67508;SDS011;54354;44.724;11.284;2022-09-20T05:03:05;11.65;;;3.05;;
67508;SDS011;54354;44.724;11.284;2022-09-20T05:08:09;11.13;;;3.40;;
67508;SDS011;54354;44.724;11.284;2022-09-20T05:13:32;14.02;;;3.42;;
67508;SDS011;54354;44.724;11.284;2022-09-20T05:24:57;14.55;;;3.00;;
67508;SDS011;54354;44.724;11.284;2022-09-20T05:39:07;12.35;;;2.85;;
67508;SDS011;54354;44.724;11.284;2022-09-20T05:42:08;10.20;;;2.30;;
67508;SDS011;54354;44.724;11.284;2022-09-20T05:44:54;9.23;;;2.10;;
67508;SDS011;54354;44.724;11.284;2022-09-20T05:58:38;8.10;;;1.27;;
67508;SDS011;54354;44.724;11.284;2022-09-20T06:01:18;10.07;;;1.58;;
67508;SDS011;54354;44.724;11.284;2022-09-20T06:03:49;7.95;;;1.40;;
67508;SDS011;54354;44.724;11.284;2022-09-20T06:09:29;7.90;;;1.58;;
67508;SDS011;54354;44.724;11.284;2022-09-20T06:12:34;9.75;;;1.55;;
67508;SDS011;54354;44.724;11.284;2022-09-20T06:20:36;11.45;;;1.50;;
67508;SDS011;54354;44.724;11.284;2022-09-20T06:23:10;8.80;;;1.52;;
67508;SDS011;54354;44.724;11.284;2022-09-20T06:28:32;8.88;;;1.70;;
67508;SDS011;54354;44.724;11.284;2022-09-20T06:31:07;16.83;;;1.88;;
67508;SDS011;54354;44.724;11.284;2022-09-20T06:33:46;12.55;;;1.90;;
67508;SDS011;54354;44.724;11.284;2022-09-20T06:36:24;14.02;;;2.00;;
67508;SDS011;54354;44.724;11.284;2022-09-20T06:39:27;10.38;;;1.65;;
67508;SDS011;54354;44.724;11.284;2022-09-20T06:42:14;14.80;;;2.53;;
67508;SDS011;54354;44.724;11.284;2022-09-20T06:44:39;9.73;;;2.28;;
67508;SDS011;54354;44.724;11.284;2022-09-20T06:47:11;10.52;;;1.75;;
67508;SDS011;54354;44.724;11.284;2022-09-20T06:49:37;10.20;;;1.80;;
67508;SDS011;54354;44.724;11.284;2022-09-20T06:52:12;5.78;;;1.50;;
67508;SDS011;54354;44.724;11.284;2022-09-20T06:54:40;6.63;;;1.75;;
67508;SDS011;54354;44.724;11.284;2022-09-20T06:57:10;6.28;;;1.40;;
67508;SDS011;54354;44.724;11.284;2022-09-20T06:59:40;4.47;;;1.20;;
67508;SDS011;54354;44.724;11.284;2022-09-20T07:02:05;7.47;;;1.45;;
67508;SDS011;54354;44.724;11.284;2022-09-20T07:04:32;7.05;;;1.63;;
67508;SDS011;54354;44.724;11.284;2022-09-20T07:07:02;5.75;;;1.80;;
67508;SDS011;54354;44.724;11.284;2022-09-20T07:09:29;9.25;;;1.40;;
67508;SDS011;54354;44.724;11.284;2022-09-20T07:11:55;4.78;;;1.20;;
67508;SDS011;54354;44.724;11.284;2022-09-20T07:14:23;10.27;;;1.30;;
67508;SDS011;54354;44.724;11.284;2022-09-20T07:16:49;6.72;;;1.30;;
67508;SDS011;54354;44.724;11.284;2022-09-20T07:19:14;4.95;;;1.38;;
67508;SDS011;54354;44.724;11.284;2022-09-20T07:21:40;9.02;;;1.58;;
67508;SDS011;54354;44.724;11.284;2022-09-20T07:24:06;9.05;;;1.35;;
67508;SDS011;54354;44.724;11.284;2022-09-20T07:26:31;8.85;;;1.48;;
67508;SDS011;54354;44.724;11.284;2022-09-20T07:28:59;8.07;;;1.50;;
67508;SDS011;54354;44.724;11.284;2022-09-20T07:31:26;6.93;;;1.20;;
67508;SDS011;54354;44.724;11.284;2022-09-20T07:33:52;5.88;;;1.38;;
67508;SDS011;54354;44.724;11.284;2022-09-20T07:36:18;8.50;;;1.50;;
67508;SDS011;54354;44.724;11.284;2022-09-20T07:38:47;7.22;;;1.30;;
67508;SDS011;54354;44.724;11.284;2022-09-20T07:43:41;4.70;;;1.17;;
67508;SDS011;54354;44.724;11.284;2022-09-20T07:46:06;3.10;;;1.20;;
67508;SDS011;54354;44.724;11.284;2022-09-20T07:48:35;5.85;;;1.25;;
67508;SDS011;54354;44.724;11.284;2022-09-20T07:51:02;9.55;;;1.42;;
67508;SDS011;54354;44.724;11.284;2022-09-20T07:53:30;7.70;;;1.38;;
67508;SDS011;54354;44.724;11.284;2022-09-20T07:55:56;6.43;;;1.45;;
67508;SDS011;54354;44.724;11.284;2022-09-20T07:58:23;4.18;;;1.13;;
67508;SDS011;54354;44.724;11.284;2022-09-20T08:00:57;6.45;;;1.20;;
67508;SDS011;54354;44.724;11.284;2022-09-20T08:03:23;9.07;;;1.05;;
67508;SDS011;54354;44.724;11.284;2022-09-20T08:05:50;6.15;;;1.10;;
67508;SDS011;54354;44.724;11.284;2022-09-20T08:08:22;5.95;;;1.10;;
67508;SDS011;54354;44.724;11.284;2022-09-20T08:10:48;8.27;;;1.30;;
67508;SDS011;54354;44.724;11.284;2022-09-20T08:13:14;4.65;;;1.38;;
67508;SDS011;54354;44.724;11.284;2022-09-20T08:15:40;8.80;;;1.25;;
67508;SDS011;54354;44.724;11.284;2022-09-20T08:18:06;4.47;;;1.20;;
67508;SDS011;54354;44.724;11.284;2022-09-20T08:20:36;6.78;;;1.52;;
67508;SDS011;54354;44.724;11.284;2022-09-20T08:23:03;9.02;;;1.23;;
67508;SDS011;54354;44.724;11.284;2022-09-20T08:25:33;10.00;;;1.38;;
67508;SDS011;54354;44.724;11.284;2022-09-20T08:27:58;10.68;;;1.20;;
67508;SDS011;54354;44.724;11.284;2022-09-20T08:30:24;9.38;;;1.20;;
67508;SDS011;54354;44.724;11.284;2022-09-20T08:32:56;11.55;;;1.30;;
67508;SDS011;54354;44.724;11.284;2022-09-20T08:35:26;7.88;;;1.38;;
67508;SDS011;54354;44.724;11.284;2022-09-20T08:37:54;4.53;;;1.10;;
67508;SDS011;54354;44.724;11.284;2022-09-20T08:40:20;8.20;;;1.15;;
67508;SDS011;54354;44.724;11.284;2022-09-20T08:42:48;10.23;;;1.50;;
67508;SDS011;54354;44.724;11.284;2022-09-20T08:45:15;17.27;;;1.35;;
67508;SDS011;54354;44.724;11.284;2022-09-20T08:47:48;6.78;;;1.40;;
67508;SDS011;54354;44.724;11.284;2022-09-20T08:50:18;10.35;;;1.60;;
67508;SDS011;54354;44.724;11.284;2022-09-20T08:52:45;8.07;;;1.40;;
67508;SDS011;54354;44.724;11.284;2022-09-20T08:57:40;10.55;;;1.17;;
67508;SDS011;54354;44.724;11.284;2022-09-20T09:00:50;5.57;;;1.08;;
67508;SDS011;54354;44.724;11.284;2022-09-20T09:02:58;9.38;;;1.20;;
67508;SDS011;54354;44.724;11.284;2022-09-20T09:05:29;8.43;;;1.25;;
67508;SDS011;54354;44.724;11.284;2022-09-20T09:07:57;7.07;;;1.00;;
67508;SDS011;54354;44.724;11.284;2022-09-20T09:10:29;4.40;;;1.20;;
67508;SDS011;54354;44.724;11.284;2022-09-20T09:13:00;10.90;;;1.20;;
67508;SDS011;54354;44.724;11.284;2022-09-20T09:15:29;6.70;;;1.20;;
67508;SDS011;54354;44.724;11.284;2022-09-20T09:17:59;11.10;;;1.30;;
67508;SDS011;54354;44.724;11.284;2022-09-20T09:20:25;8.15;;;1.05;;
67508;SDS011;54354;44.724;11.284;2022-09-20T09:23:25;4.55;;;1.17;;
67508;SDS011;54354;44.724;11.284;2022-09-20T09:25:49;7.10;;;1.23;;
67508;SDS011;54354;44.724;11.284;2022-09-20T09:28:16;8.52;;;1.23;;
67508;SDS011;54354;44.724;11.284;2022-09-20T09:30:47;6.85;;;1.00;;
67508;SDS011;54354;44.724;11.284;2022-09-20T09:35:55;7.03;;;1.05;;
67508;SDS011;54354;44.724;11.284;2022-09-20T09:38:39;5.55;;;1.02;;
67508;SDS011;54354;44.724;11.284;2022-09-20T09:41:20;7.47;;;1.23;;
67508;SDS011;54354;44.724;11.284;2022-09-20T09:43:57;5.03;;;1.60;;
67508;SDS011;54354;44.724;11.284;2022-09-20T09:46:32;8.38;;;1.00;;
67508;SDS011;54354;44.724;11.284;2022-09-20T09:49:11;7.95;;;1.80;;
67508;SDS011;54354;44.724;11.284;2022-09-20T09:54:26;6.90;;;0.93;;
67508;SDS011;54354;44.724;11.284;2022-09-20T10:05:05;13.50;;;1.30;;
67508;SDS011;54354;44.724;11.284;2022-09-20T10:15:52;10.00;;;0.93;;
67508;SDS011;54354;44.724;11.284;2022-09-20T10:18:38;6.70;;;1.05;;
67508;SDS011;54354;44.724;11.284;2022-09-20T10:31:35;4.05;;;1.10;;
67508;SDS011;54354;44.724;11.284;2022-09-20T10:34:20;8.05;;;1.17;;
67508;SDS011;54354;44.724;11.284;2022-09-20T10:37:05;4.03;;;0.90;;
67508;SDS011;54354;44.724;11.284;2022-09-20T10:39:43;7.30;;;0.90;;
67508;SDS011;54354;44.724;11.284;2022-09-20T10:45:23;4.00;;;1.13;;
67508;SDS011;54354;44.724;11.284;2022-09-20T10:48:04;8.20;;;0.90;;
67508;SDS011;54354;44.724;11.284;2022-09-20T11:01:25;4.32;;;0.70;;
67508;SDS011;54354;44.724;11.284;2022-09-20T11:12:45;6.22;;;1.05;;
67508;SDS011;54354;44.724;11.284;2022-09-20T11:20:32;6.25;;;1.10;;
67508;SDS011;54354;44.724;11.284;2022-09-20T11:23:27;3.40;;;0.70;;
67508;SDS011;54354;44.724;11.284;2022-09-20T11:26:09;4.05;;;1.00;;
67508;SDS011;54354;44.724;11.284;2022-09-20T11:28:41;7.28;;;0.77;;
67508;SDS011;54354;44.724;11.284;2022-09-20T11:36:38;4.88;;;0.90;;
67508;SDS011;54354;44.724;11.284;2022-09-20T11:39:15;2.35;;;0.95;;
67508;SDS011;54354;44.724;11.284;2022-09-20T11:41:45;4.53;;;0.90;;
67508;SDS011;54354;44.724;11.284;2022-09-20T11:44:14;3.40;;;1.00;;
67508;SDS011;54354;44.724;11.284;2022-09-20T11:52:36;3.75;;;0.70;;
67508;SDS011;54354;44.724;11.284;2022-09-20T11:57:39;3.20;;;1.10;;
67508;SDS011;54354;44.724;11.284;2022-09-20T12:00:05;2.65;;;0.60;;
67508;SDS011;54354;44.724;11.284;2022-09-20T12:05:22;3.45;;;0.80;;
67508;SDS011;54354;44.724;11.284;2022-09-20T12:07:52;6.45;;;0.90;;
67508;SDS011;54354;44.724;11.284;2022-09-20T12:10:20;4.13;;;0.82;;
67508;SDS011;54354;44.724;11.284;2022-09-20T12:12:48;4.85;;;0.90;;
67508;SDS011;54354;44.724;11.284;2022-09-20T12:20:55;3.92;;;0.70;;
67508;SDS011;54354;44.724;11.284;2022-09-20T12:28:35;5.50;;;0.80;;
67508;SDS011;54354;44.724;11.284;2022-09-20T12:36:20;7.18;;;0.63;;
67508;SDS011;54354;44.724;11.284;2022-09-20T12:38:46;4.88;;;0.63;;
67508;SDS011;54354;44.724;11.284;2022-09-20T12:41:17;3.90;;;0.75;;
67508;SDS011;54354;44.724;11.284;2022-09-20T12:46:28;34.72;;;1.35;;
67508;SDS011;54354;44.724;11.284;2022-09-20T12:57:58;15.35;;;1.23;;
67508;SDS011;54354;44.724;11.284;2022-09-20T13:08:34;6.20;;;0.88;;
67508;SDS011;54354;44.724;11.284;2022-09-20T13:11:19;6.47;;;1.27;;
67508;SDS011;54354;44.724;11.284;2022-09-20T13:21:51;9.00;;;1.10;;
67508;SDS011;54354;44.724;11.284;2022-09-20T13:24:21;6.88;;;1.00;;
67508;SDS011;54354;44.724;11.284;2022-09-20T13:26:49;5.40;;;1.00;;
67508;SDS011;54354;44.724;11.284;2022-09-20T13:32:17;6.03;;;1.25;;
67508;SDS011;54354;44.724;11.284;2022-09-20T13:35:21;5.85;;;0.80;;
67508;SDS011;54354;44.724;11.284;2022-09-20T13:40:38;2.35;;;0.70;;
67508;SDS011;54354;44.724;11.284;2022-09-20T13:43:28;3.53;;;0.50;;
67508;SDS011;54354;44.724;11.284;2022-09-20T13:49:11;3.75;;;0.90;;
67508;SDS011;54354;44.724;11.284;2022-09-20T13:51:40;6.10;;;0.70;;
67508;SDS011;54354;44.724;11.284;2022-09-20T13:54:19;1.20;;;0.50;;
67508;SDS011;54354;44.724;11.284;2022-09-20T13:57:04;3.65;;;1.10;;
67508;SDS011;54354;44.724;11.284;2022-09-20T13:59:42;1.85;;;0.57;;
67508;SDS011;54354;44.724;11.284;2022-09-20T14:02:30;7.95;;;0.90;;
67508;SDS011;54354;44.724;11.284;2022-09-20T14:04:58;4.60;;;0.60;;
67508;SDS011;54354;44.724;11.284;2022-09-20T14:07:27;2.17;;;0.50;;
67508;SDS011;54354;44.724;11.284;2022-09-20T14:09:54;2.38;;;0.60;;
67508;SDS011;54354;44.724;11.284;2022-09-20T14:12:21;2.70;;;0.68;;
67508;SDS011;54354;44.724;11.284;2022-09-20T14:14:49;5.28;;;0.73;;
67508;SDS011;54354;44.724;11.284;2022-09-20T14:17:16;7.55;;;0.95;;
67508;SDS011;54354;44.724;11.284;2022-09-20T14:19:44;1.30;;;0.40;;
67508;SDS011;54354;44.724;11.284;2022-09-20T14:22:31;6.72;;;0.60;;
67508;SDS011;54354;44.724;11.284;2022-09-20T14:25:00;3.83;;;0.63;;
67508;SDS011;54354;44.724;11.284;2022-09-20T14:27:38;3.05;;;0.60;;
67508;SDS011;54354;44.724;11.284;2022-09-20T14:30:04;1.83;;;0.50;;
67508;SDS011;54354;44.724;11.284;2022-09-20T14:35:16;3.97;;;0.70;;
67508;SDS011;54354;44.724;11.284;2022-09-20T14:40:25;1.70;;;0.60;;
67508;SDS011;54354;44.724;11.284;2022-09-20T14:42:53;1.90;;;0.63;;
67508;SDS011;54354;44.724;11.284;2022-09-20T14:45:36;1.00;;;0.50;;
67508;SDS011;54354;44.724;11.284;2022-09-20T14:50:37;1.52;;;0.50;;
67508;SDS011;54354;44.724;11.284;2022-09-20T14:53:13;3.10;;;0.50;;
67508;SDS011;54354;44.724;11.284;2022-09-20T15:01:25;1.13;;;0.50;;
67508;SDS011;54354;44.724;11.284;2022-09-20T15:03:50;2.28;;;0.63;;
67508;SDS011;54354;44.724;11.284;2022-09-20T15:06:17;3.72;;;0.73;;
67508;SDS011;54354;44.724;11.284;2022-09-20T15:08:43;2.42;;;0.55;;
67508;SDS011;54354;44.724;11.284;2022-09-20T15:11:12;3.20;;;0.80;;
67508;SDS011;54354;44.724;11.284;2022-09-20T15:13:39;2.58;;;0.80;;
67508;SDS011;54354;44.724;11.284;2022-09-20T15:16:04;3.90;;;0.77;;
67508;SDS011;54354;44.724;11.284;2022-09-20T15:18:34;2.22;;;0.52;;
67508;SDS011;54354;44.724;11.284;2022-09-20T15:21:04;2.42;;;0.50;;
67508;SDS011;54354;44.724;11.284;2022-09-20T15:23:30;4.15;;;0.50;;
67508;SDS011;54354;44.724;11.284;2022-09-20T15:25:56;2.38;;;0.50;;
67508;SDS011;54354;44.724;11.284;2022-09-20T15:28:22;2.92;;;0.50;;
67508;SDS011;54354;44.724;11.284;2022-09-20T15:30:49;1.63;;;0.60;;
67508;SDS011;54354;44.724;11.284;2022-09-20T15:33:16;3.58;;;0.70;;
67508;SDS011;54354;44.724;11.284;2022-09-20T15:35:43;4.10;;;0.68;;
67508;SDS011;54354;44.724;11.284;2022-09-20T15:38:10;2.78;;;0.88;;
67508;SDS011;54354;44.724;11.284;2022-09-20T15:40:40;1.88;;;0.60;;
67508;SDS011;54354;44.724;11.284;2022-09-20T15:43:06;4.00;;;0.63;;
67508;SDS011;54354;44.724;11.284;2022-09-20T15:45:34;2.42;;;0.40;;
67508;SDS011;54354;44.724;11.284;2022-09-20T15:48:00;2.55;;;0.50;;
67508;SDS011;54354;44.724;11.284;2022-09-20T15:50:27;3.13;;;0.52;;
67508;SDS011;54354;44.724;11.284;2022-09-20T15:52:52;2.45;;;0.52;;
67508;SDS011;54354;44.724;11.284;2022-09-20T15:55:18;1.73;;;0.50;;
67508;SDS011;54354;44.724;11.284;2022-09-20T15:57:44;1.92;;;0.73;;
67508;SDS011;54354;44.724;11.284;2022-09-20T16:00:10;3.05;;;0.60;;
67508;SDS011;54354;44.724;11.284;2022-09-20T16:02:36;3.65;;;0.70;;
67508;SDS011;54354;44.724;11.284;2022-09-20T16:05:01;1.60;;;0.40;;
67508;SDS011;54354;44.724;11.284;2022-09-20T16:07:27;4.35;;;0.50;;
67508;SDS011;54354;44.724;11.284;2022-09-20T16:09:53;2.40;;;0.60;;
67508;SDS011;54354;44.724;11.284;2022-09-20T16:12:20;2.92;;;0.50;;
67508;SDS011;54354;44.724;11.284;2022-09-20T16:14:46;1.08;;;0.50;;
67508;SDS011;54354;44.724;11.284;2022-09-20T16:17:12;2.25;;;0.60;;
67508;SDS011;54354;44.724;11.284;2022-09-20T16:19:38;2.80;;;0.60;;
67508;SDS011;54354;44.724;11.284;2022-09-20T16:22:04;2.97;;;0.50;;
67508;SDS011;54354;44.724;11.284;2022-09-20T16:24:31;2.10;;;0.40;;
67508;SDS011;54354;44.724;11.284;2022-09-20T16:26:58;2.85;;;0.45;;
67508;SDS011;54354;44.724;11.284;2022-09-20T16:29:25;6.38;;;0.70;;
67508;SDS011;54354;44.724;11.284;2022-09-20T16:31:53;1.98;;;0.50;;
67508;SDS011;54354;44.724;11.284;2022-09-20T16:34:20;1.13;;;0.40;;
67508;SDS011;54354;44.724;11.284;2022-09-20T16:37:06;4.10;;;0.60;;
67508;SDS011;54354;44.724;11.284;2022-09-20T16:39:35;4.63;;;0.50;;
67508;SDS011;54354;44.724;11.284;2022-09-20T16:42:02;0.93;;;0.50;;
67508;SDS011;54354;44.724;11.284;2022-09-20T16:44:39;4.10;;;0.60;;
67508;SDS011;54354;44.724;11.284;2022-09-20T16:47:12;1.52;;;0.50;;
67508;SDS011;54354;44.724;11.284;2022-09-20T16:49:46;1.05;;;0.40;;
67508;SDS011;54354;44.724;11.284;2022-09-20T16:52:12;3.10;;;0.60;;
67508;SDS011;54354;44.724;11.284;2022-09-20T16:54:38;1.48;;;0.50;;
67508;SDS011;54354;44.724;11.284;2022-09-20T16:57:04;5.22;;;0.47;;
67508;SDS011;54354;44.724;11.284;2022-09-20T16:59:30;1.27;;;0.50;;
67508;SDS011;54354;44.724;11.284;2022-09-20T17:01:55;12.70;;;0.60;;
67508;SDS011;54354;44.724;11.284;2022-09-20T17:04:21;5.25;;;0.70;;
67508;SDS011;54354;44.724;11.284;2022-09-20T17:06:47;5.55;;;0.57;;
67508;SDS011;54354;44.724;11.284;2022-09-20T17:09:15;3.28;;;0.55;;
67508;SDS011;54354;44.724;11.284;2022-09-20T17:11:42;8.82;;;0.60;;
67508;SDS011;54354;44.724;11.284;2022-09-20T17:14:13;2.03;;;0.50;;
67508;SDS011;54354;44.724;11.284;2022-09-20T17:16:41;2.90;;;0.63;;
67508;SDS011;54354;44.724;11.284;2022-09-20T17:19:12;6.60;;;0.50;;
67508;SDS011;54354;44.724;11.284;2022-09-20T17:21:40;3.05;;;0.60;;
67508;SDS011;54354;44.724;11.284;2022-09-20T17:24:10;6.60;;;0.60;;
67508;SDS011;54354;44.724;11.284;2022-09-20T17:26:38;3.90;;;1.10;;
67508;SDS011;54354;44.724;11.284;2022-09-20T17:29:09;4.20;;;0.50;;
67508;SDS011;54354;44.724;11.284;2022-09-20T17:31:39;6.50;;;0.60;;
67508;SDS011;54354;44.724;11.284;2022-09-20T17:34:07;2.63;;;0.50;;
67508;SDS011;54354;44.724;11.284;2022-09-20T17:36:36;2.42;;;0.47;;
67508;SDS011;54354;44.724;11.284;2022-09-20T17:39:06;4.13;;;0.47;;
67508;SDS011;54354;44.724;11.284;2022-09-20T17:41:35;4.22;;;0.43;;
67508;SDS011;54354;44.724;11.284;2022-09-20T17:44:01;4.32;;;0.40;;
67508;SDS011;54354;44.724;11.284;2022-09-20T17:46:32;3.35;;;0.55;;
67508;SDS011;54354;44.724;11.284;2022-09-20T17:49:05;5.25;;;0.63;;
67508;SDS011;54354;44.724;11.284;2022-09-20T17:51:36;3.00;;;0.57;;
67508;SDS011;54354;44.724;11.284;2022-09-20T17:54:03;7.50;;;0.60;;
67508;SDS011;54354;44.724;11.284;2022-09-20T17:56:30;5.15;;;0.50;;
67508;SDS011;54354;44.724;11.284;2022-09-20T17:58:59;4.32;;;0.57;;
67508;SDS011;54354;44.724;11.284;2022-09-20T18:01:27;9.48;;;0.60;;
67508;SDS011;54354;44.724;11.284;2022-09-20T18:03:55;3.92;;;0.70;;
67508;SDS011;54354;44.724;11.284;2022-09-20T18:06:22;5.20;;;0.73;;
67508;SDS011;54354;44.724;11.284;2022-09-20T18:08:54;2.95;;;0.70;;
67508;SDS011;54354;44.724;11.284;2022-09-20T18:11:22;7.13;;;0.57;;
67508;SDS011;54354;44.724;11.284;2022-09-20T18:13:53;4.82;;;0.60;;
67508;SDS011;54354;44.724;11.284;2022-09-20T18:16:18;5.25;;;0.70;;
67508;SDS011;54354;44.724;11.284;2022-09-20T18:18:44;8.52;;;0.52;;
67508;SDS011;54354;44.724;11.284;2022-09-20T18:21:11;2.75;;;0.50;;
67508;SDS011;54354;44.724;11.284;2022-09-20T18:23:41;4.97;;;0.55;;
67508;SDS011;54354;44.724;11.284;2022-09-20T18:26:09;2.35;;;0.60;;
67508;SDS011;54354;44.724;11.284;2022-09-20T18:31:32;3.53;;;0.60;;
67508;SDS011;54354;44.724;11.284;2022-09-20T18:34:00;6.40;;;3.35;;
67508;SDS011;54354;44.724;11.284;2022-09-20T18:36:31;5.80;;;0.80;;
67508;SDS011;54354;44.724;11.284;2022-09-20T18:38:58;11.65;;;0.80;;
67508;SDS011;54354;44.724;11.284;2022-09-20T18:41:27;4.47;;;0.60;;
67508;SDS011;54354;44.724;11.284;2022-09-20T18:43:58;7.32;;;0.70;;
67508;SDS011;54354;44.724;11.284;2022-09-20T18:46:25;6.25;;;0.70;;
67508;SDS011;54354;44.724;11.284;2022-09-20T18:48:53;3.53;;;0.52;;
67508;SDS011;54354;44.724;11.284;2022-09-20T18:51:21;3.85;;;0.60;;
67508;SDS011;54354;44.724;11.284;2022-09-20T18:53:48;1.52;;;0.40;;
67508;SDS011;54354;44.724;11.284;2022-09-20T18:58:50;1.98;;;0.50;;
67508;SDS011;54354;44.724;11.284;2022-09-20T19:16:06;6.63;;;0.55;;
67508;SDS011;54354;44.724;11.284;2022-09-20T19:26:34;2.10;;;0.77;;
67508;SDS011;54354;44.724;11.284;2022-09-20T19:29:37;4.90;;;1.07;;
67508;SDS011;54354;44.724;11.284;2022-09-20T19:31:56;3.05;;;0.90;;
67508;SDS011;54354;44.724;11.284;2022-09-20T19:34:26;5.95;;;0.68;;
67508;SDS011;54354;44.724;11.284;2022-09-20T19:47:55;7.35;;;0.80;;
67508;SDS011;54354;44.724;11.284;2022-09-20T19:50:26;2.70;;;0.77;;
67508;SDS011;54354;44.724;11.284;2022-09-20T19:52:58;7.95;;;0.82;;
67508;SDS011;54354;44.724;11.284;2022-09-20T19:55:26;5.78;;;1.35;;
67508;SDS011;54354;44.724;11.284;2022-09-20T19:57:52;7.65;;;2.53;;
67508;SDS011;54354;44.724;11.284;2022-09-20T20:00:19;4.50;;;1.75;;
67508;SDS011;54354;44.724;11.284;2022-09-20T20:02:45;4.80;;;1.23;;
67508;SDS011;54354;44.724;11.284;2022-09-20T20:05:18;5.43;;;1.00;;
67508;SDS011;54354;44.724;11.284;2022-09-20T20:07:50;5.47;;;0.70;;
67508;SDS011;54354;44.724;11.284;2022-09-20T20:16:10;5.68;;;0.60;;
67508;SDS011;54354;44.724;11.284;2022-09-20T20:18:40;6.45;;;1.30;;
67508;SDS011;54354;44.724;11.284;2022-09-20T20:21:16;2.55;;;0.70;;
67508;SDS011;54354;44.724;11.284;2022-09-20T20:26:33;1.50;;;0.70;;
67508;SDS011;54354;44.724;11.284;2022-09-20T20:28:59;5.50;;;0.70;;
67508;SDS011;54354;44.724;11.284;2022-09-20T20:31:24;5.45;;;0.80;;
67508;SDS011;54354;44.724;11.284;2022-09-20T20:33:50;8.73;;;0.90;;
67508;SDS011;54354;44.724;11.284;2022-09-20T20:36:15;2.33;;;0.65;;
67508;SDS011;54354;44.724;11.284;2022-09-20T20:38:41;7.20;;;0.70;;
67508;SDS011;54354;44.724;11.284;2022-09-20T20:41:14;3.65;;;0.80;;
67508;SDS011;54354;44.724;11.284;2022-09-20T20:43:42;7.68;;;0.90;;
67508;SDS011;54354;44.724;11.284;2022-09-20T20:46:11;3.40;;;0.80;;
67508;SDS011;54354;44.724;11.284;2022-09-20T20:48:38;2.05;;;0.60;;
67508;SDS011;54354;44.724;11.284;2022-09-20T20:53:37;4.30;;;0.60;;
67508;SDS011;54354;44.724;11.284;2022-09-20T20:56:07;4.95;;;0.60;;
67508;SDS011;54354;44.724;11.284;2022-09-20T20:58:35;2.92;;;0.98;;
67508;SDS011;54354;44.724;11.284;2022-09-20T21:01:08;5.50;;;0.70;;
67508;SDS011;54354;44.724;11.284;2022-09-20T21:03:42;2.10;;;0.60;;
67508;SDS011;54354;44.724;11.284;2022-09-20T21:06:10;3.40;;;0.60;;
67508;SDS011;54354;44.724;11.284;2022-09-20T21:08:37;9.43;;;0.70;;
67508;SDS011;54354;44.724;11.284;2022-09-20T21:11:07;4.38;;;0.60;;
67508;SDS011;54354;44.724;11.284;2022-09-20T21:13:34;3.67;;;0.50;;
67508;SDS011;54354;44.724;11.284;2022-09-20T21:16:01;1.33;;;0.50;;
67508;SDS011;54354;44.724;11.284;2022-09-20T21:18:31;3.67;;;0.47;;
67508;SDS011;54354;44.724;11.284;2022-09-20T21:20:57;3.22;;;0.52;;
67508;SDS011;54354;44.724;11.284;2022-09-20T21:23:23;4.35;;;0.68;;
67508;SDS011;54354;44.724;11.284;2022-09-20T21:25:58;1.30;;;0.50;;